createdAt,value
2019-04-29T00:00:10.000Z,94.64
2019-04-29T00:02:42.809Z,94.68
2019-04-29T00:05:15.344Z,94.92
2019-04-29T00:07:46.711Z,94.93
2019-04-29T00:10:21.980Z,95.06
2019-04-29T00:12:55.792Z,95.18
2019-04-29T00:15:28.686Z,95.21
2019-04-29T00:18:01.527Z,95.24
2019-04-29T00:20:34.517Z,95.28
2019-04-29T00:23:05.903Z,95.32
2019-04-29T00:25:37.297Z,95.36
2019-04-29T00:28:09.522Z,95.24
2019-04-29T00:30:41.099Z,95.28
2019-04-29T00:33:15.780Z,95.34
2019-04-29T00:35:47.357Z,95.55
2019-04-29T00:38:20.537Z,95.53
2019-04-29T00:40:53.414Z,95.48
2019-04-29T00:43:26.074Z,95.60
2019-04-29T00:45:57.418Z,95.61
2019-04-29T00:48:28.991Z,95.71
2019-04-29T00:51:00.432Z,95.44
2019-04-29T00:53:32.637Z,95.45
2019-04-29T00:56:04.783Z,95.42
2019-04-29T00:58:36.495Z,95.48
2019-04-29T01:01:12.929Z,95.46
2019-04-29T01:03:44.065Z,95.40
2019-04-29T01:06:15.554Z,95.43
2019-04-29T01:08:46.848Z,95.32
2019-04-29T01:11:18.272Z,95.29
2019-04-29T01:13:50.370Z,95.09
2019-04-29T01:16:21.817Z,95.07
2019-04-29T01:18:52.812Z,94.89
2019-04-29T01:21:25.216Z,95.05
2019-04-29T01:23:56.359Z,95.02
2019-04-29T01:26:29.408Z,95.03
2019-04-29T01:29:02.742Z,95.07
2019-04-29T01:31:35.246Z,95.35
2019-04-29T01:34:08.332Z,95.13
2019-04-29T01:36:41.155Z,94.91
2019-04-29T01:39:14.533Z,94.90
2019-04-29T01:41:47.896Z,94.95
2019-04-29T03:07:16.234Z,95.50
2019-04-29T03:09:48.287Z,95.53
2019-04-29T03:12:19.454Z,95.43
2019-04-29T03:14:50.762Z,95.29
2019-04-29T03:17:22.475Z,95.25
2019-04-29T03:19:55.196Z,95.31
2019-04-29T03:22:27.086Z,95.50
2019-04-29T03:24:58.516Z,95.38
2019-04-29T03:27:29.828Z,95.39
2019-04-29T03:30:01.383Z,95.41
2019-04-29T03:32:32.829Z,95.44
2019-04-29T03:35:04.618Z,95.55
2019-04-29T03:37:36.524Z,95.38
2019-04-29T03:40:08.429Z,95.37
2019-04-29T03:42:39.749Z,95.62
2019-04-29T03:45:11.063Z,95.49
2019-04-29T03:47:42.875Z,95.63
2019-04-29T03:50:14.594Z,95.43
2019-04-29T03:52:46.326Z,95.52
2019-04-29T03:55:18.178Z,95.43
2019-04-29T03:57:49.487Z,95.54
2019-04-29T04:00:21.256Z,95.49
2019-04-29T04:02:54.324Z,95.36
2019-04-29T04:05:27.589Z,95.38
2019-04-29T04:08:00.850Z,95.39
2019-04-29T04:10:32.655Z,95.36
2019-04-29T04:13:03.862Z,95.27
2019-04-29T04:15:35.540Z,95.33
2019-04-29T04:18:08.872Z,94.93
2019-04-29T04:20:40.134Z,95.05
2019-04-29T04:23:12.888Z,95.28
2019-04-29T04:25:43.942Z,95.09
2019-04-29T04:28:15.210Z,95.18
2019-04-29T04:30:46.650Z,95.13
2019-04-29T04:33:18.539Z,95.03
2019-04-29T04:35:50.268Z,95.14
2019-04-29T04:38:21.974Z,95.00
2019-04-29T04:40:54.918Z,94.97
2019-04-29T04:43:26.914Z,94.98
2019-04-29T04:45:58.611Z,94.85
2019-04-29T04:48:31.520Z,94.77
2019-04-29T04:51:03.117Z,94.56
2019-04-29T04:53:34.772Z,94.40
2019-04-29T04:56:07.615Z,94.64
2019-04-29T04:58:40.568Z,94.76
2019-04-29T05:01:11.905Z,94.17
2019-04-29T05:03:43.922Z,94.40
2019-04-29T05:06:15.409Z,94.30
2019-04-29T05:08:47.377Z,94.20
2019-04-29T05:11:18.977Z,94.23
2019-04-29T05:13:52.147Z,94.09
2019-04-29T05:16:23.580Z,93.90
2019-04-29T05:18:55.584Z,93.58
2019-04-29T05:21:26.846Z,93.99
2019-04-29T05:23:58.227Z,93.94
2019-04-29T05:26:31.425Z,93.91
2019-04-29T05:29:02.774Z,93.55
2019-04-29T05:31:35.033Z,93.96
2019-04-29T05:34:06.623Z,93.69
2019-04-29T05:36:39.527Z,93.51
2019-04-29T05:39:12.972Z,93.80
2019-04-29T05:41:43.972Z,93.51
2019-04-29T05:44:20.988Z,93.61
2019-04-29T05:46:55.872Z,94.02
2019-04-29T05:49:29.424Z,93.46
2019-04-29T05:52:03.235Z,93.07
2019-04-29T05:54:35.902Z,92.97
2019-04-29T05:57:07.101Z,92.96
2019-04-29T05:59:39.019Z,92.74
2019-04-29T06:02:10.440Z,92.38
2019-04-29T06:04:41.829Z,92.68
2019-04-29T06:07:16.913Z,92.67
2019-04-29T06:09:47.116Z,92.82
2019-04-29T06:12:18.982Z,91.97
2019-04-29T06:14:50.455Z,92.15
2019-04-29T06:17:22.032Z,92.49
2019-04-29T06:19:53.011Z,92.55
2019-04-29T06:22:24.160Z,92.17
2019-04-29T06:24:54.771Z,91.94
2019-04-29T06:27:25.768Z,92.03
2019-04-29T06:29:58.595Z,91.72
2019-04-29T06:32:28.858Z,92.12
2019-04-29T06:34:59.866Z,91.88
2019-04-29T06:37:30.791Z,91.99
2019-04-29T06:40:02.029Z,91.54
2019-04-29T06:42:33.571Z,91.15
2019-04-29T06:45:07.229Z,91.56
2019-04-29T06:47:38.101Z,91.06
2019-04-29T06:50:10.172Z,91.52
2019-04-29T06:52:41.144Z,91.12
2019-04-29T06:55:12.833Z,90.80
2019-04-29T06:57:43.616Z,90.29
2019-04-29T07:00:17.577Z,89.93
2019-04-29T07:02:49.872Z,90.57
2019-04-29T07:05:20.169Z,90.50
2019-04-29T07:07:50.810Z,90.82
2019-04-29T07:10:26.718Z,90.09
2019-04-29T07:12:54.297Z,90.52
2019-04-29T07:15:25.160Z,89.89
2019-04-29T07:17:56.184Z,90.04
2019-04-29T07:20:28.204Z,89.06
2019-04-29T07:23:00.676Z,89.30
2019-04-29T07:25:32.179Z,88.54
2019-04-29T07:28:02.762Z,89.37
2019-04-29T07:30:39.182Z,88.83
2019-04-29T07:33:07.109Z,89.45
2019-04-29T07:35:38.484Z,88.36
2019-04-29T07:38:13.533Z,88.88
2019-04-29T07:40:44.670Z,89.16
2019-04-29T07:43:15.559Z,89.20
2019-04-29T07:45:48.159Z,88.42
2019-04-29T07:48:19.971Z,88.13
2019-04-29T07:50:50.908Z,87.32
2019-04-29T07:53:34.489Z,87.71
2019-04-29T07:55:54.226Z,88.07
2019-04-29T07:58:27.315Z,87.96
2019-04-29T08:00:58.836Z,87.83
2019-04-29T08:03:30.731Z,88.66
2019-04-29T08:06:02.130Z,87.40
2019-04-29T08:08:34.422Z,88.39
2019-04-29T08:11:06.242Z,87.39
2019-04-29T08:13:39.576Z,86.37
2019-04-29T08:16:12.740Z,87.18
2019-04-29T08:18:43.647Z,86.61
2019-04-29T08:21:16.023Z,85.09
2019-04-29T08:23:47.968Z,85.52
2019-04-29T08:26:18.908Z,85.34
2019-04-29T08:28:52.917Z,85.93
2019-04-29T08:31:23.304Z,84.69
2019-04-29T08:33:54.765Z,84.63
2019-04-29T08:36:27.142Z,85.43
2019-04-29T08:39:08.437Z,84.93
2019-04-29T08:41:31.332Z,84.98
2019-04-29T08:44:15.898Z,85.65
2019-04-29T08:46:37.668Z,83.83
2019-04-29T08:49:11.427Z,84.56
2019-04-29T08:51:41.212Z,83.54
2019-04-29T08:54:16.007Z,84.17
2019-04-29T08:57:01.834Z,83.34
2019-04-29T08:59:20.649Z,84.15
2019-04-29T09:01:51.133Z,82.88
2019-04-29T09:04:23.600Z,82.80
2019-04-29T09:06:54.486Z,82.05
2019-04-29T09:09:29.007Z,81.26
2019-04-29T09:11:58.597Z,80.32
2019-04-29T09:14:29.760Z,80.79
2019-04-29T09:17:01.239Z,81.71
2019-04-29T09:19:39.507Z,80.82
2019-04-29T09:22:12.958Z,80.00
2019-04-29T09:24:48.187Z,80.56
2019-04-29T09:27:20.788Z,79.14
2019-04-29T09:29:54.191Z,79.96
2019-04-29T09:32:24.179Z,79.08
2019-04-29T09:34:55.555Z,76.21
2019-04-29T09:37:27.510Z,78.11
2019-04-29T09:39:58.267Z,75.97
2019-04-29T09:42:35.004Z,75.26
2019-04-29T09:45:14.715Z,74.31
2019-04-29T09:47:43.514Z,74.63
2019-04-29T09:50:14.274Z,74.21
2019-04-29T09:52:45.473Z,73.16
2019-04-29T09:55:17.211Z,72.21
2019-04-29T09:57:48.255Z,72.52
2019-04-29T10:00:22.654Z,71.95
2019-04-29T10:02:55.487Z,70.45
2019-04-29T10:05:28.135Z,69.82
2019-04-29T10:08:00.196Z,71.34
2019-04-29T10:10:32.118Z,69.63
2019-04-29T10:13:02.850Z,67.11
2019-04-29T10:15:35.610Z,68.51
2019-04-29T10:18:07.910Z,66.58
2019-04-29T10:20:40.310Z,66.77
2019-04-29T10:23:11.208Z,65.30
2019-04-29T10:25:42.300Z,62.95
2019-04-29T10:28:13.322Z,64.38
2019-04-29T10:30:44.791Z,63.29
2019-04-29T10:33:17.528Z,62.94
2019-04-29T10:35:48.308Z,63.22
2019-04-29T10:38:19.127Z,63.48
2019-04-29T10:40:56.646Z,62.63
2019-04-29T10:43:29.605Z,62.75
2019-04-29T10:46:02.315Z,59.93
2019-04-29T10:48:36.258Z,60.03
2019-04-29T10:51:09.224Z,59.92
2019-04-29T10:53:41.039Z,60.32
2019-04-29T10:56:12.361Z,59.21
2019-04-29T10:58:44.674Z,57.08
2019-04-29T11:01:20.067Z,57.83
2019-04-29T11:03:50.854Z,57.78
2019-04-29T11:06:21.735Z,54.63
2019-04-29T11:08:54.207Z,55.56
2019-04-29T11:11:27.344Z,53.66
2019-04-29T11:14:01.506Z,54.27
2019-04-29T11:16:46.107Z,55.64
2019-04-29T11:19:05.588Z,56.13
2019-04-29T11:21:39.000Z,54.48
2019-04-29T11:24:11.252Z,53.79
2019-04-29T11:26:44.786Z,53.50
2019-04-29T11:29:15.909Z,55.87
2019-04-29T11:31:48.983Z,53.54
2019-04-29T11:34:20.944Z,53.12
2019-04-29T11:36:52.013Z,53.66
2019-04-29T11:39:24.808Z,53.40
2019-04-29T11:41:59.670Z,52.66
2019-04-29T11:44:31.869Z,52.15
2019-04-29T11:47:02.986Z,51.24
2019-04-29T11:49:35.727Z,51.40
2019-04-29T11:52:09.826Z,50.65
2019-04-29T11:54:40.268Z,51.24
2019-04-29T11:57:12.986Z,50.23
2019-04-29T11:59:47.369Z,52.87
2019-04-29T12:02:23.449Z,53.20
2019-04-29T12:04:57.305Z,54.03
2019-04-29T12:07:32.780Z,55.04
2019-04-29T12:10:06.618Z,54.74
2019-04-29T12:12:37.626Z,55.34
2019-04-29T12:15:13.770Z,56.20
2019-04-29T12:17:46.250Z,55.28
2019-04-29T12:20:20.288Z,55.63
2019-04-29T12:22:52.968Z,56.52
2019-04-29T12:25:27.406Z,55.84
2019-04-29T12:28:01.675Z,56.12
2019-04-29T12:30:34.734Z,54.67
2019-04-29T12:33:08.421Z,55.23
2019-04-29T12:35:51.725Z,54.44
2019-04-29T12:38:18.290Z,54.75
2019-04-29T12:40:55.072Z,54.67
2019-04-29T12:43:26.291Z,54.33
2019-04-29T12:45:59.223Z,54.22
2019-04-29T12:48:30.761Z,50.96
2019-04-29T12:51:02.949Z,50.45
2019-04-29T12:53:39.496Z,49.47
2019-04-29T12:56:12.795Z,49.19
2019-04-29T12:58:50.374Z,49.06
2019-04-29T13:01:20.815Z,48.65
2019-04-29T13:03:55.392Z,47.40
2019-04-29T13:06:38.824Z,48.30
2019-04-29T13:09:16.969Z,48.47
2019-04-29T13:11:48.338Z,46.82
2019-04-29T13:14:13.398Z,46.38
2019-04-29T13:16:46.334Z,46.37
2019-04-29T13:19:20.898Z,46.13
2019-04-29T13:21:53.796Z,45.84
2019-04-29T13:24:26.295Z,45.54
2019-04-29T13:26:58.591Z,46.94
2019-04-29T13:29:32.081Z,45.95
2019-04-29T13:32:03.760Z,47.44
2019-04-29T13:34:37.731Z,46.21
2019-04-29T13:37:18.223Z,46.99
2019-04-29T13:39:45.272Z,45.95
2019-04-29T13:42:20.888Z,45.55
2019-04-29T13:45:06.131Z,47.07
2019-04-29T13:47:30.658Z,45.23
2019-04-29T13:50:16.919Z,43.98
2019-04-29T13:52:35.931Z,44.31
2019-04-29T13:55:18.021Z,43.41
2019-04-29T13:57:51.201Z,43.64
2019-04-29T14:00:26.369Z,44.03
2019-04-29T14:03:15.054Z,43.48
2019-04-29T14:06:03.867Z,43.29
2019-04-29T14:08:28.762Z,43.60
2019-04-29T14:11:00.806Z,43.90
2019-04-29T14:13:33.054Z,41.87
2019-04-29T14:16:07.684Z,41.80
2019-04-29T14:18:38.668Z,42.77
2019-04-29T14:21:12.044Z,41.87
2019-04-29T14:23:45.065Z,42.08
2019-04-29T14:26:17.461Z,40.47
2019-04-29T14:28:49.913Z,40.72
2019-04-29T14:31:22.708Z,41.18
2019-04-29T14:34:00.318Z,42.15
2019-04-29T14:36:31.521Z,42.16
2019-04-29T14:39:03.470Z,42.25
2019-04-29T14:41:38.232Z,42.38
2019-04-29T14:44:15.182Z,41.81
2019-04-29T14:46:48.746Z,43.37
2019-04-29T14:49:23.047Z,43.70
2019-04-29T14:51:58.448Z,42.83
2019-04-29T14:54:31.476Z,42.13
2019-04-29T14:57:04.126Z,42.26
2019-04-29T14:59:35.661Z,40.20
2019-04-29T15:02:16.252Z,41.09
2019-04-29T15:04:44.218Z,41.10
2019-04-29T15:07:15.658Z,41.93
2019-04-29T15:09:51.328Z,42.65
2019-04-29T15:12:28.246Z,43.04
2019-04-29T15:15:02.412Z,43.20
2019-04-29T15:17:40.463Z,44.31
2019-04-29T15:20:12.170Z,43.57
2019-04-29T15:22:43.392Z,42.90
2019-04-29T15:25:16.771Z,41.85
2019-04-29T15:27:49.273Z,42.51
2019-04-29T15:30:21.302Z,41.97
2019-04-29T15:32:57.471Z,41.13
2019-04-29T15:35:27.184Z,41.04
2019-04-29T15:37:58.464Z,40.79
2019-04-29T15:40:30.214Z,41.32
2019-04-29T15:43:01.937Z,40.62
2019-04-29T15:45:34.279Z,41.19
2019-04-29T15:48:06.672Z,40.62
2019-04-29T15:50:39.119Z,41.50
2019-04-29T15:53:10.894Z,40.08
2019-04-29T15:55:42.766Z,39.64
2019-04-29T15:58:14.655Z,40.63
2019-04-29T16:00:46.384Z,40.00
2019-04-29T16:03:19.689Z,39.70
2019-04-29T16:06:11.213Z,39.77
2019-04-29T16:08:29.558Z,39.83
2019-04-29T16:11:02.801Z,40.28
2019-04-29T16:13:34.952Z,39.11
2019-04-29T16:16:06.841Z,39.71
2019-04-29T16:18:38.583Z,39.75
2019-04-29T16:21:10.113Z,39.60
2019-04-29T16:23:41.677Z,40.48
2019-04-29T16:26:12.902Z,40.00
2019-04-29T16:28:44.920Z,39.54
2019-04-29T16:31:16.652Z,39.91
2019-04-29T16:33:54.638Z,39.67
2019-04-29T16:36:22.222Z,39.72
2019-04-29T16:38:53.594Z,39.02
2019-04-29T16:41:26.844Z,39.75
2019-04-29T16:43:58.471Z,39.71
2019-04-29T16:46:37.343Z,40.23
2019-04-29T16:49:05.165Z,39.31
2019-04-29T16:51:36.914Z,39.48
2019-04-29T16:54:12.872Z,39.10
2019-04-29T16:56:41.617Z,39.97
2019-04-29T16:59:14.266Z,39.73
2019-04-29T17:01:46.902Z,40.36
2019-04-29T17:04:18.479Z,40.12
2019-04-29T17:07:11.317Z,40.59
2019-04-29T17:09:24.772Z,40.62
2019-04-29T17:11:58.392Z,40.66
2019-04-29T17:14:30.566Z,40.88
2019-04-29T17:17:02.459Z,40.96
2019-04-29T17:19:35.584Z,41.18
2019-04-29T17:22:24.845Z,41.61
2019-04-29T17:24:41.678Z,41.78
2019-04-29T17:27:14.954Z,42.48
2019-04-29T17:29:49.578Z,42.51
2019-04-29T17:32:24.300Z,43.15
2019-04-29T17:34:59.660Z,43.14
2019-04-29T17:37:32.178Z,43.19
2019-04-29T17:40:06.960Z,42.81
2019-04-29T17:42:39.797Z,43.33
2019-04-29T17:45:26.956Z,44.23
2019-04-29T17:47:49.138Z,43.69
2019-04-29T17:50:30.150Z,43.68
2019-04-29T17:52:56.972Z,44.13
2019-04-29T17:55:38.634Z,44.83
2019-04-29T17:58:19.755Z,44.87
2019-04-29T18:01:05.281Z,45.16
2019-04-29T18:03:52.732Z,44.88
2019-04-29T18:06:38.927Z,45.90
2019-04-29T18:09:17.257Z,46.40
2019-04-29T18:12:05.206Z,46.73
2019-04-29T18:14:51.020Z,47.37
2019-04-29T18:17:28.898Z,47.37
2019-04-29T18:19:58.158Z,47.65
2019-04-29T18:22:31.867Z,47.82
2019-04-29T18:25:05.047Z,48.75
2019-04-29T18:27:38.325Z,48.67
2019-04-29T18:30:12.348Z,48.70
2019-04-29T18:32:46.659Z,49.41
2019-04-29T18:35:17.181Z,49.37
2019-04-29T18:37:50.758Z,49.69
2019-04-29T18:40:21.164Z,49.98
2019-04-29T18:42:52.693Z,50.03
2019-04-29T18:45:25.401Z,50.55
2019-04-29T18:47:56.972Z,51.16
2019-04-29T18:50:33.569Z,51.00
2019-04-29T18:53:02.534Z,51.27
2019-04-29T18:55:35.345Z,51.38
2019-04-29T18:58:06.719Z,51.57
2019-04-29T19:00:39.366Z,51.82
2019-04-29T19:03:11.319Z,52.05
2019-04-29T19:05:47.814Z,52.89
2019-04-29T19:08:23.122Z,51.84
2019-04-29T19:10:52.367Z,51.56
2019-04-29T19:13:26.059Z,52.37
2019-04-29T19:16:09.111Z,51.82
2019-04-29T19:18:30.637Z,51.93
2019-04-29T19:21:02.549Z,51.98
2019-04-29T19:23:35.903Z,51.99
2019-04-29T19:26:09.937Z,52.00
2019-04-29T19:28:45.167Z,52.36
2019-04-29T19:31:15.952Z,52.74
2019-04-29T19:33:47.351Z,52.78
2019-04-29T19:36:21.805Z,53.41
2019-04-29T19:38:52.211Z,52.93
2019-04-29T19:41:23.268Z,51.98
2019-04-29T19:43:57.471Z,52.14
2019-04-29T19:46:36.706Z,51.93
2019-04-29T19:49:07.523Z,52.06
2019-04-29T19:51:39.357Z,51.91
2019-04-29T19:54:10.461Z,51.61
2019-04-29T19:56:42.479Z,50.85
2019-04-29T19:59:16.989Z,50.55
2019-04-29T20:01:51.105Z,51.14
2019-04-29T20:04:22.960Z,51.09
2019-04-29T20:07:06.049Z,50.67
2019-04-29T20:09:32.131Z,50.08
2019-04-29T20:12:11.408Z,49.99
2019-04-29T20:14:37.227Z,50.02
2019-04-29T20:17:13.960Z,50.56
2019-04-29T20:19:45.627Z,49.64
2019-04-29T20:22:15.968Z,49.40
2019-04-29T20:24:49.525Z,48.69
2019-04-29T20:27:20.551Z,48.56
2019-04-29T20:29:50.146Z,47.93
2019-04-29T20:32:22.492Z,48.15
2019-04-29T20:34:58.999Z,48.34
2019-04-29T20:37:27.115Z,48.16
2019-04-29T20:40:00.619Z,48.03
2019-04-29T20:42:29.520Z,48.02
2019-04-29T20:45:00.426Z,47.49
2019-04-29T20:47:38.025Z,47.84
2019-04-29T20:50:08.972Z,48.48
2019-04-29T20:52:38.695Z,48.08
2019-04-29T20:55:10.375Z,47.58
2019-04-29T20:57:42.197Z,48.01
2019-04-29T21:00:14.718Z,47.89
2019-04-29T21:02:48.912Z,47.89
2019-04-29T21:05:24.477Z,47.74
2019-04-29T21:08:03.134Z,48.00
2019-04-29T21:10:28.705Z,47.59
2019-04-29T21:13:01.655Z,46.83
2019-04-29T21:15:36.198Z,46.61
2019-04-29T21:18:10.431Z,47.75
2019-04-29T21:20:42.202Z,47.54
2019-04-29T21:23:13.598Z,47.60
2019-04-29T21:25:45.761Z,48.21
2019-04-29T21:28:17.711Z,46.86
2019-04-29T21:30:49.550Z,47.23
2019-04-29T21:33:21.611Z,47.48
2019-04-29T21:35:57.929Z,47.62
2019-04-29T21:38:29.584Z,47.88
2019-04-29T21:41:02.804Z,47.67
2019-04-29T21:43:35.863Z,48.11
2019-04-29T21:46:07.443Z,48.12
2019-04-29T21:48:39.022Z,47.70
2019-04-29T21:51:12.452Z,47.96
2019-04-29T21:53:45.921Z,48.37
2019-04-29T21:56:18.474Z,47.67
2019-04-29T21:58:49.816Z,48.37
2019-04-29T22:01:21.635Z,48.57
2019-04-29T22:03:51.913Z,48.64
2019-04-29T22:06:24.826Z,48.78
2019-04-29T22:09:01.060Z,49.91
2019-04-29T22:11:27.921Z,48.61
2019-04-29T22:13:59.525Z,49.03
2019-04-29T22:16:35.629Z,48.84
2019-04-29T22:19:05.783Z,49.57
2019-04-29T22:21:36.174Z,50.09
2019-04-29T22:24:06.461Z,49.95
2019-04-29T22:26:37.030Z,50.43
2019-04-29T22:29:07.571Z,50.42
2019-04-29T22:31:38.418Z,50.85
2019-04-29T22:34:09.825Z,51.37
2019-04-29T22:36:40.874Z,51.23
2019-04-29T22:39:11.117Z,51.99
2019-04-29T22:41:43.788Z,51.07
2019-04-29T22:44:21.755Z,51.46
2019-04-29T22:46:47.701Z,51.78
2019-04-29T22:49:24.461Z,52.07
2019-04-29T22:51:54.548Z,52.22
2019-04-29T22:54:23.475Z,52.71
2019-04-29T22:56:56.623Z,52.08
2019-04-29T22:59:27.601Z,53.46
2019-04-29T23:01:58.287Z,53.38
2019-04-29T23:04:28.994Z,52.88
2019-04-29T23:06:59.939Z,53.49
2019-04-29T23:09:30.945Z,52.83
2019-04-29T23:12:01.479Z,53.23
2019-04-29T23:14:32.871Z,52.89
2019-04-29T23:17:12.314Z,52.43
2019-04-29T23:19:46.479Z,52.71
2019-04-29T23:22:22.139Z,53.20
2019-04-29T23:24:53.191Z,53.05
2019-04-29T23:27:25.971Z,52.79
2019-04-29T23:29:57.556Z,52.86
2019-04-29T23:32:29.641Z,53.04
2019-04-29T23:35:05.544Z,53.90
2019-04-29T23:37:33.320Z,54.37
2019-04-29T23:40:05.882Z,53.19
2019-04-29T23:42:36.618Z,53.87
2019-04-29T23:45:07.256Z,54.08
2019-04-29T23:47:41.791Z,54.17
2019-04-29T23:50:13.955Z,53.98
2019-04-29T23:52:47.888Z,54.47
2019-04-29T23:55:20.448Z,53.95
2019-04-29T23:57:54.955Z,54.07
